sensor_id;sensor_type;location;lat;lon;timestamp;P1;durP1;ratioP1;P2;durP2;ratioP2
31594;SDS011;18200;48.726;8.892;2022-11-15T00:03:52;7.40;;;3.72;;
31594;SDS011;18200;48.726;8.892;2022-11-15T00:08:11;7.03;;;3.95;;
31594;SDS011;18200;48.726;8.892;2022-11-15T00:12:30;8.02;;;4.20;;
31594;SDS011;18200;48.726;8.892;2022-11-15T00:16:49;6.70;;;4.65;;
31594;SDS011;18200;48.726;8.892;2022-11-15T00:21:10;11.93;;;4.47;;
31594;SDS011;18200;48.726;8.892;2022-11-15T00:25:31;9.13;;;5.03;;
31594;SDS011;18200;48.726;8.892;2022-11-15T00:29:51;10.43;;;5.50;;
31594;SDS011;18200;48.726;8.892;2022-11-15T00:34:10;10.23;;;6.10;;
31594;SDS011;18200;48.726;8.892;2022-11-15T00:38:32;10.05;;;5.05;;
31594;SDS011;18200;48.726;8.892;2022-11-15T00:42:52;8.07;;;4.85;;
31594;SDS011;18200;48.726;8.892;2022-11-15T00:47:11;7.63;;;4.60;;
31594;SDS011;18200;48.726;8.892;2022-11-15T00:51:30;7.85;;;4.57;;
31594;SDS011;18200;48.726;8.892;2022-11-15T00:55:50;6.32;;;4.20;;
31594;SDS011;18200;48.726;8.892;2022-11-15T01:00:09;7.07;;;4.90;;
31594;SDS011;18200;48.726;8.892;2022-11-15T01:04:28;7.05;;;4.72;;
31594;SDS011;18200;48.726;8.892;2022-11-15T01:08:47;8.88;;;4.65;;
31594;SDS011;18200;48.726;8.892;2022-11-15T01:13:06;8.30;;;4.22;;
31594;SDS011;18200;48.726;8.892;2022-11-15T01:17:26;6.65;;;4.10;;
31594;SDS011;18200;48.726;8.892;2022-11-15T01:21:45;7.30;;;4.30;;
31594;SDS011;18200;48.726;8.892;2022-11-15T01:26:09;8.07;;;4.65;;
31594;SDS011;18200;48.726;8.892;2022-11-15T01:30:30;6.00;;;4.00;;
31594;SDS011;18200;48.726;8.892;2022-11-15T01:34:50;8.93;;;4.75;;
31594;SDS011;18200;48.726;8.892;2022-11-15T01:39:08;9.90;;;4.78;;
31594;SDS011;18200;48.726;8.892;2022-11-15T01:43:32;7.82;;;4.57;;
31594;SDS011;18200;48.726;8.892;2022-11-15T01:47:55;8.95;;;4.93;;
31594;SDS011;18200;48.726;8.892;2022-11-15T01:52:15;7.45;;;4.20;;
31594;SDS011;18200;48.726;8.892;2022-11-15T01:56:38;9.63;;;4.65;;
31594;SDS011;18200;48.726;8.892;2022-11-15T02:01:03;8.70;;;4.22;;
31594;SDS011;18200;48.726;8.892;2022-11-15T02:05:22;8.07;;;4.72;;
31594;SDS011;18200;48.726;8.892;2022-11-15T02:09:41;8.65;;;5.10;;
31594;SDS011;18200;48.726;8.892;2022-11-15T02:14:02;6.50;;;4.75;;
31594;SDS011;18200;48.726;8.892;2022-11-15T02:18:34;8.93;;;5.05;;
31594;SDS011;18200;48.726;8.892;2022-11-15T02:33:00;8.23;;;4.72;;
31594;SDS011;18200;48.726;8.892;2022-11-15T02:37:34;10.10;;;4.63;;
31594;SDS011;18200;48.726;8.892;2022-11-15T02:42:31;10.02;;;5.13;;
31594;SDS011;18200;48.726;8.892;2022-11-15T02:47:13;10.95;;;5.57;;
31594;SDS011;18200;48.726;8.892;2022-11-15T02:51:36;7.53;;;4.75;;
31594;SDS011;18200;48.726;8.892;2022-11-15T02:55:55;7.85;;;5.10;;
31594;SDS011;18200;48.726;8.892;2022-11-15T03:00:16;7.07;;;4.68;;
31594;SDS011;18200;48.726;8.892;2022-11-15T03:13:57;11.05;;;4.93;;
31594;SDS011;18200;48.726;8.892;2022-11-15T03:18:21;8.73;;;4.68;;
31594;SDS011;18200;48.726;8.892;2022-11-15T03:22:46;13.25;;;5.22;;
31594;SDS011;18200;48.726;8.892;2022-11-15T03:27:08;9.00;;;4.55;;
31594;SDS011;18200;48.726;8.892;2022-11-15T03:31:33;7.28;;;4.68;;
31594;SDS011;18200;48.726;8.892;2022-11-15T03:36:08;11.60;;;5.20;;
31594;SDS011;18200;48.726;8.892;2022-11-15T03:41:01;11.70;;;5.63;;
31594;SDS011;18200;48.726;8.892;2022-11-15T03:45:19;9.10;;;4.80;;
31594;SDS011;18200;48.726;8.892;2022-11-15T03:49:44;10.70;;;5.25;;
31594;SDS011;18200;48.726;8.892;2022-11-15T03:54:08;8.98;;;4.82;;
31594;SDS011;18200;48.726;8.892;2022-11-15T03:58:27;8.25;;;4.97;;
31594;SDS011;18200;48.726;8.892;2022-11-15T04:02:47;8.73;;;4.82;;
31594;SDS011;18200;48.726;8.892;2022-11-15T04:07:06;10.93;;;5.47;;
31594;SDS011;18200;48.726;8.892;2022-11-15T04:11:24;8.77;;;4.80;;
31594;SDS011;18200;48.726;8.892;2022-11-15T04:15:43;7.47;;;4.60;;
31594;SDS011;18200;48.726;8.892;2022-11-15T04:20:04;6.97;;;4.45;;
31594;SDS011;18200;48.726;8.892;2022-11-15T04:24:43;8.80;;;4.55;;
31594;SDS011;18200;48.726;8.892;2022-11-15T04:29:02;9.40;;;4.93;;
31594;SDS011;18200;48.726;8.892;2022-11-15T04:33:39;9.02;;;4.13;;
31594;SDS011;18200;48.726;8.892;2022-11-15T04:37:58;7.75;;;4.82;;
31594;SDS011;18200;48.726;8.892;2022-11-15T04:42:18;14.00;;;10.30;;
31594;SDS011;18200;48.726;8.892;2022-11-15T04:46:37;11.27;;;8.02;;
31594;SDS011;18200;48.726;8.892;2022-11-15T04:50:56;8.65;;;4.65;;
31594;SDS011;18200;48.726;8.892;2022-11-15T04:55:15;10.52;;;4.68;;
31594;SDS011;18200;48.726;8.892;2022-11-15T04:59:34;9.75;;;4.60;;
31594;SDS011;18200;48.726;8.892;2022-11-15T05:03:53;8.10;;;4.85;;
31594;SDS011;18200;48.726;8.892;2022-11-15T05:08:31;9.63;;;5.38;;
31594;SDS011;18200;48.726;8.892;2022-11-15T05:12:50;8.07;;;4.95;;
31594;SDS011;18200;48.726;8.892;2022-11-15T05:17:09;13.20;;;6.80;;
31594;SDS011;18200;48.726;8.892;2022-11-15T05:21:27;10.15;;;5.88;;
31594;SDS011;18200;48.726;8.892;2022-11-15T05:25:47;10.82;;;5.30;;
31594;SDS011;18200;48.726;8.892;2022-11-15T05:30:06;9.25;;;5.35;;
31594;SDS011;18200;48.726;8.892;2022-11-15T05:34:25;7.93;;;5.53;;
31594;SDS011;18200;48.726;8.892;2022-11-15T05:38:48;12.10;;;5.35;;
31594;SDS011;18200;48.726;8.892;2022-11-15T05:43:08;11.38;;;5.93;;
31594;SDS011;18200;48.726;8.892;2022-11-15T05:47:28;14.25;;;5.72;;
31594;SDS011;18200;48.726;8.892;2022-11-15T05:51:48;11.02;;;5.80;;
31594;SDS011;18200;48.726;8.892;2022-11-15T05:56:08;12.52;;;6.70;;
31594;SDS011;18200;48.726;8.892;2022-11-15T06:00:28;9.80;;;5.75;;
31594;SDS011;18200;48.726;8.892;2022-11-15T06:04:47;14.32;;;5.43;;
31594;SDS011;18200;48.726;8.892;2022-11-15T06:09:06;14.30;;;7.22;;
31594;SDS011;18200;48.726;8.892;2022-11-15T06:13:25;12.85;;;7.70;;
31594;SDS011;18200;48.726;8.892;2022-11-15T06:17:44;10.60;;;6.60;;
31594;SDS011;18200;48.726;8.892;2022-11-15T06:22:04;9.95;;;5.80;;
31594;SDS011;18200;48.726;8.892;2022-11-15T06:26:23;10.40;;;5.80;;
31594;SDS011;18200;48.726;8.892;2022-11-15T06:30:42;10.02;;;5.80;;
31594;SDS011;18200;48.726;8.892;2022-11-15T06:35:01;9.52;;;6.38;;
31594;SDS011;18200;48.726;8.892;2022-11-15T06:39:20;11.95;;;6.05;;
31594;SDS011;18200;48.726;8.892;2022-11-15T06:43:40;11.10;;;7.00;;
31594;SDS011;18200;48.726;8.892;2022-11-15T06:47:59;17.42;;;9.25;;
31594;SDS011;18200;48.726;8.892;2022-11-15T06:52:19;53.33;;;19.70;;
31594;SDS011;18200;48.726;8.892;2022-11-15T06:56:38;28.33;;;13.13;;
31594;SDS011;18200;48.726;8.892;2022-11-15T07:01:15;16.23;;;9.90;;
31594;SDS011;18200;48.726;8.892;2022-11-15T07:05:34;27.52;;;19.17;;
31594;SDS011;18200;48.726;8.892;2022-11-15T07:09:53;13.63;;;7.00;;
31594;SDS011;18200;48.726;8.892;2022-11-15T07:14:12;15.07;;;7.82;;
31594;SDS011;18200;48.726;8.892;2022-11-15T07:18:35;15.85;;;8.68;;
31594;SDS011;18200;48.726;8.892;2022-11-15T07:23:01;16.02;;;8.68;;
31594;SDS011;18200;48.726;8.892;2022-11-15T07:27:21;16.70;;;7.75;;
31594;SDS011;18200;48.726;8.892;2022-11-15T07:31:40;15.20;;;7.55;;
31594;SDS011;18200;48.726;8.892;2022-11-15T07:36:00;18.60;;;8.35;;
31594;SDS011;18200;48.726;8.892;2022-11-15T07:40:24;16.35;;;7.65;;
31594;SDS011;18200;48.726;8.892;2022-11-15T07:44:43;16.65;;;7.15;;
31594;SDS011;18200;48.726;8.892;2022-11-15T07:49:02;17.13;;;7.43;;
31594;SDS011;18200;48.726;8.892;2022-11-15T07:53:21;17.00;;;7.50;;
31594;SDS011;18200;48.726;8.892;2022-11-15T07:57:40;12.77;;;6.95;;
31594;SDS011;18200;48.726;8.892;2022-11-15T08:02:00;14.82;;;6.82;;
31594;SDS011;18200;48.726;8.892;2022-11-15T08:06:19;20.73;;;9.45;;
31594;SDS011;18200;48.726;8.892;2022-11-15T08:10:38;16.08;;;8.85;;
31594;SDS011;18200;48.726;8.892;2022-11-15T08:14:57;16.45;;;8.07;;
31594;SDS011;18200;48.726;8.892;2022-11-15T08:19:16;10.75;;;6.70;;
31594;SDS011;18200;48.726;8.892;2022-11-15T08:23:35;17.77;;;7.30;;
31594;SDS011;18200;48.726;8.892;2022-11-15T08:27:56;15.32;;;6.97;;
31594;SDS011;18200;48.726;8.892;2022-11-15T08:32:18;13.98;;;7.50;;
31594;SDS011;18200;48.726;8.892;2022-11-15T08:36:36;12.63;;;7.18;;
31594;SDS011;18200;48.726;8.892;2022-11-15T08:40:59;13.45;;;7.38;;
31594;SDS011;18200;48.726;8.892;2022-11-15T08:45:20;17.15;;;6.82;;
31594;SDS011;18200;48.726;8.892;2022-11-15T08:49:40;12.25;;;6.40;;
31594;SDS011;18200;48.726;8.892;2022-11-15T08:53:58;8.38;;;5.38;;
31594;SDS011;18200;48.726;8.892;2022-11-15T08:58:17;9.52;;;5.93;;
31594;SDS011;18200;48.726;8.892;2022-11-15T09:02:37;11.32;;;5.30;;
31594;SDS011;18200;48.726;8.892;2022-11-15T09:06:57;9.85;;;4.40;;
31594;SDS011;18200;48.726;8.892;2022-11-15T09:11:16;9.52;;;4.60;;
31594;SDS011;18200;48.726;8.892;2022-11-15T09:15:38;8.43;;;4.05;;
31594;SDS011;18200;48.726;8.892;2022-11-15T09:19:58;6.78;;;3.00;;
31594;SDS011;18200;48.726;8.892;2022-11-15T09:24:17;6.97;;;3.47;;
31594;SDS011;18200;48.726;8.892;2022-11-15T09:28:36;6.45;;;3.25;;
31594;SDS011;18200;48.726;8.892;2022-11-15T09:32:56;9.52;;;3.40;;
31594;SDS011;18200;48.726;8.892;2022-11-15T09:37:15;6.68;;;3.42;;
31594;SDS011;18200;48.726;8.892;2022-11-15T09:41:38;8.15;;;4.10;;
31594;SDS011;18200;48.726;8.892;2022-11-15T09:51:04;8.63;;;4.38;;
31594;SDS011;18200;48.726;8.892;2022-11-15T09:55:09;23.85;;;13.77;;
31594;SDS011;18200;48.726;8.892;2022-11-15T10:03:25;9.32;;;4.70;;
31594;SDS011;18200;48.726;8.892;2022-11-15T10:11:48;6.85;;;2.78;;
31594;SDS011;18200;48.726;8.892;2022-11-15T10:33:42;4.68;;;2.60;;
31594;SDS011;18200;48.726;8.892;2022-11-15T10:37:42;44.28;;;19.40;;
31594;SDS011;18200;48.726;8.892;2022-11-15T10:47:06;6.53;;;2.92;;
31594;SDS011;18200;48.726;8.892;2022-11-15T10:51:27;7.72;;;3.58;;
31594;SDS011;18200;48.726;8.892;2022-11-15T10:55:30;6.40;;;3.17;;
31594;SDS011;18200;48.726;8.892;2022-11-15T10:59:33;7.45;;;4.57;;
31594;SDS011;18200;48.726;8.892;2022-11-15T11:03:37;8.07;;;4.53;;
31594;SDS011;18200;48.726;8.892;2022-11-15T11:07:39;4.22;;;3.20;;
31594;SDS011;18200;48.726;8.892;2022-11-15T11:11:45;6.53;;;4.47;;
31594;SDS011;18200;48.726;8.892;2022-11-15T11:33:44;11.13;;;7.53;;
31594;SDS011;18200;48.726;8.892;2022-11-15T11:37:51;11.35;;;4.05;;
31594;SDS011;18200;48.726;8.892;2022-11-15T11:46:59;10.60;;;7.03;;
31594;SDS011;18200;48.726;8.892;2022-11-15T11:51:05;10.52;;;5.68;;
31594;SDS011;18200;48.726;8.892;2022-11-15T11:59:49;16.67;;;8.85;;
31594;SDS011;18200;48.726;8.892;2022-11-15T12:03:51;23.17;;;10.40;;
31594;SDS011;18200;48.726;8.892;2022-11-15T12:08:01;18.58;;;8.68;;
31594;SDS011;18200;48.726;8.892;2022-11-15T12:12:32;13.70;;;4.63;;
31594;SDS011;18200;48.726;8.892;2022-11-15T12:16:38;6.57;;;3.78;;
31594;SDS011;18200;48.726;8.892;2022-11-15T12:20:51;9.93;;;5.37;;
31594;SDS011;18200;48.726;8.892;2022-11-15T12:25:01;28.00;;;11.10;;
31594;SDS011;18200;48.726;8.892;2022-11-15T12:29:09;7.80;;;3.80;;
31594;SDS011;18200;48.726;8.892;2022-11-15T12:33:30;6.53;;;3.88;;
31594;SDS011;18200;48.726;8.892;2022-11-15T13:13:43;11.07;;;4.60;;
31594;SDS011;18200;48.726;8.892;2022-11-15T13:17:45;8.85;;;4.68;;
31594;SDS011;18200;48.726;8.892;2022-11-15T13:21:47;11.60;;;5.55;;
31594;SDS011;18200;48.726;8.892;2022-11-15T13:30:25;4.85;;;3.40;;
31594;SDS011;18200;48.726;8.892;2022-11-15T13:34:31;5.65;;;3.60;;
31594;SDS011;18200;48.726;8.892;2022-11-15T13:38:34;6.45;;;3.67;;
31594;SDS011;18200;48.726;8.892;2022-11-15T13:42:36;5.40;;;3.90;;
31594;SDS011;18200;48.726;8.892;2022-11-15T13:46:36;5.93;;;3.30;;
31594;SDS011;18200;48.726;8.892;2022-11-15T13:50:37;6.80;;;3.67;;
31594;SDS011;18200;48.726;8.892;2022-11-15T13:54:41;7.60;;;4.88;;
31594;SDS011;18200;48.726;8.892;2022-11-15T14:02:44;6.43;;;3.90;;
31594;SDS011;18200;48.726;8.892;2022-11-15T14:06:46;6.80;;;3.53;;
31594;SDS011;18200;48.726;8.892;2022-11-15T14:10:49;4.97;;;3.60;;
31594;SDS011;18200;48.726;8.892;2022-11-15T14:15:23;10.77;;;3.78;;
31594;SDS011;18200;48.726;8.892;2022-11-15T14:23:29;8.32;;;4.07;;
31594;SDS011;18200;48.726;8.892;2022-11-15T14:27:29;6.40;;;3.90;;
31594;SDS011;18200;48.726;8.892;2022-11-15T14:31:30;8.15;;;3.40;;
31594;SDS011;18200;48.726;8.892;2022-11-15T14:35:30;5.85;;;3.20;;
31594;SDS011;18200;48.726;8.892;2022-11-15T14:39:33;7.05;;;3.75;;
31594;SDS011;18200;48.726;8.892;2022-11-15T14:43:33;8.20;;;3.58;;
31594;SDS011;18200;48.726;8.892;2022-11-15T14:47:33;7.72;;;3.42;;
31594;SDS011;18200;48.726;8.892;2022-11-15T14:51:34;6.93;;;4.05;;
31594;SDS011;18200;48.726;8.892;2022-11-15T14:55:34;6.03;;;3.63;;
31594;SDS011;18200;48.726;8.892;2022-11-15T14:59:36;9.88;;;5.50;;
31594;SDS011;18200;48.726;8.892;2022-11-15T15:03:36;8.23;;;5.20;;
31594;SDS011;18200;48.726;8.892;2022-11-15T15:07:36;8.18;;;4.93;;
31594;SDS011;18200;48.726;8.892;2022-11-15T15:11:37;7.90;;;5.22;;
31594;SDS011;18200;48.726;8.892;2022-11-15T15:15:37;13.90;;;7.15;;
31594;SDS011;18200;48.726;8.892;2022-11-15T15:19:38;9.65;;;5.68;;
31594;SDS011;18200;48.726;8.892;2022-11-15T15:23:38;8.00;;;4.70;;
31594;SDS011;18200;48.726;8.892;2022-11-15T15:27:38;8.25;;;3.65;;
31594;SDS011;18200;48.726;8.892;2022-11-15T15:31:39;6.70;;;3.30;;
31594;SDS011;18200;48.726;8.892;2022-11-15T15:35:39;10.30;;;4.97;;
31594;SDS011;18200;48.726;8.892;2022-11-15T15:39:39;11.80;;;4.95;;
31594;SDS011;18200;48.726;8.892;2022-11-15T15:43:40;13.30;;;6.60;;
31594;SDS011;18200;48.726;8.892;2022-11-15T15:47:41;26.00;;;13.93;;
31594;SDS011;18200;48.726;8.892;2022-11-15T15:51:41;22.20;;;12.57;;
31594;SDS011;18200;48.726;8.892;2022-11-15T15:55:42;16.10;;;9.23;;
31594;SDS011;18200;48.726;8.892;2022-11-15T15:59:42;15.38;;;8.30;;
31594;SDS011;18200;48.726;8.892;2022-11-15T16:03:43;7.38;;;5.20;;
31594;SDS011;18200;48.726;8.892;2022-11-15T16:07:43;12.65;;;6.40;;
31594;SDS011;18200;48.726;8.892;2022-11-15T16:11:44;25.73;;;14.93;;
31594;SDS011;18200;48.726;8.892;2022-11-15T16:15:45;32.63;;;21.88;;
31594;SDS011;18200;48.726;8.892;2022-11-15T16:23:50;12.68;;;8.45;;
31594;SDS011;18200;48.726;8.892;2022-11-15T16:27:51;19.27;;;11.43;;
31594;SDS011;18200;48.726;8.892;2022-11-15T16:31:51;10.82;;;7.32;;
31594;SDS011;18200;48.726;8.892;2022-11-15T16:35:51;15.80;;;8.10;;
31594;SDS011;18200;48.726;8.892;2022-11-15T16:39:52;16.40;;;9.52;;
31594;SDS011;18200;48.726;8.892;2022-11-15T16:43:52;34.67;;;16.98;;
31594;SDS011;18200;48.726;8.892;2022-11-15T16:47:53;30.23;;;16.73;;
31594;SDS011;18200;48.726;8.892;2022-11-15T16:51:53;18.95;;;10.88;;
31594;SDS011;18200;48.726;8.892;2022-11-15T16:55:54;29.63;;;16.42;;
31594;SDS011;18200;48.726;8.892;2022-11-15T16:59:55;26.70;;;14.82;;
31594;SDS011;18200;48.726;8.892;2022-11-15T17:03:55;35.25;;;18.58;;
31594;SDS011;18200;48.726;8.892;2022-11-15T17:07:56;31.55;;;17.35;;
31594;SDS011;18200;48.726;8.892;2022-11-15T17:11:56;26.55;;;14.85;;
31594;SDS011;18200;48.726;8.892;2022-11-15T17:16:04;27.85;;;16.10;;
31594;SDS011;18200;48.726;8.892;2022-11-15T17:20:06;28.42;;;15.10;;
31594;SDS011;18200;48.726;8.892;2022-11-15T17:24:13;26.08;;;14.98;;
31594;SDS011;18200;48.726;8.892;2022-11-15T17:28:13;24.50;;;14.27;;
31594;SDS011;18200;48.726;8.892;2022-11-15T17:32:14;34.08;;;19.02;;
31594;SDS011;18200;48.726;8.892;2022-11-15T17:36:14;41.50;;;21.65;;
31594;SDS011;18200;48.726;8.892;2022-11-15T17:40:14;37.63;;;19.88;;
31594;SDS011;18200;48.726;8.892;2022-11-15T17:44:15;31.73;;;18.77;;
31594;SDS011;18200;48.726;8.892;2022-11-15T17:48:15;18.77;;;12.13;;
31594;SDS011;18200;48.726;8.892;2022-11-15T17:52:16;12.27;;;7.07;;
31594;SDS011;18200;48.726;8.892;2022-11-15T17:56:17;11.60;;;7.90;;
31594;SDS011;18200;48.726;8.892;2022-11-15T18:00:19;34.72;;;19.23;;
31594;SDS011;18200;48.726;8.892;2022-11-15T18:04:20;17.63;;;10.82;;
31594;SDS011;18200;48.726;8.892;2022-11-15T18:08:27;18.98;;;9.52;;
31594;SDS011;18200;48.726;8.892;2022-11-15T18:12:27;11.75;;;8.07;;
31594;SDS011;18200;48.726;8.892;2022-11-15T18:16:28;15.65;;;7.43;;
31594;SDS011;18200;48.726;8.892;2022-11-15T18:20:31;8.93;;;6.22;;
31594;SDS011;18200;48.726;8.892;2022-11-15T18:24:32;17.90;;;8.02;;
31594;SDS011;18200;48.726;8.892;2022-11-15T18:28:34;13.23;;;7.00;;
31594;SDS011;18200;48.726;8.892;2022-11-15T18:32:36;21.70;;;11.40;;
31594;SDS011;18200;48.726;8.892;2022-11-15T18:36:37;19.70;;;11.50;;
31594;SDS011;18200;48.726;8.892;2022-11-15T18:40:38;15.90;;;9.88;;
31594;SDS011;18200;48.726;8.892;2022-11-15T18:44:38;28.13;;;16.30;;
31594;SDS011;18200;48.726;8.892;2022-11-15T18:48:39;18.10;;;9.85;;
31594;SDS011;18200;48.726;8.892;2022-11-15T18:52:41;14.35;;;9.18;;
31594;SDS011;18200;48.726;8.892;2022-11-15T18:56:41;16.67;;;10.10;;
31594;SDS011;18200;48.726;8.892;2022-11-15T19:00:45;26.08;;;14.13;;
31594;SDS011;18200;48.726;8.892;2022-11-15T19:04:46;14.82;;;9.50;;
31594;SDS011;18200;48.726;8.892;2022-11-15T19:08:47;17.02;;;9.35;;
31594;SDS011;18200;48.726;8.892;2022-11-15T19:12:48;15.40;;;9.15;;
31594;SDS011;18200;48.726;8.892;2022-11-15T19:16:49;29.20;;;22.40;;
31594;SDS011;18200;48.726;8.892;2022-11-15T19:20:51;14.98;;;9.98;;
31594;SDS011;18200;48.726;8.892;2022-11-15T19:24:51;22.02;;;15.43;;
31594;SDS011;18200;48.726;8.892;2022-11-15T19:28:52;28.23;;;15.68;;
31594;SDS011;18200;48.726;8.892;2022-11-15T19:32:54;22.27;;;13.30;;
31594;SDS011;18200;48.726;8.892;2022-11-15T19:36:55;13.88;;;8.30;;
31594;SDS011;18200;48.726;8.892;2022-11-15T19:40:58;16.48;;;9.23;;
31594;SDS011;18200;48.726;8.892;2022-11-15T19:45:03;28.95;;;13.85;;
31594;SDS011;18200;48.726;8.892;2022-11-15T19:49:04;66.82;;;33.15;;
31594;SDS011;18200;48.726;8.892;2022-11-15T19:53:06;43.00;;;23.00;;
31594;SDS011;18200;48.726;8.892;2022-11-15T19:57:07;31.48;;;20.77;;
31594;SDS011;18200;48.726;8.892;2022-11-15T20:01:29;26.13;;;15.70;;
31594;SDS011;18200;48.726;8.892;2022-11-15T20:05:29;27.38;;;15.95;;
31594;SDS011;18200;48.726;8.892;2022-11-15T20:09:30;31.52;;;16.95;;
31594;SDS011;18200;48.726;8.892;2022-11-15T20:13:31;25.67;;;15.70;;
31594;SDS011;18200;48.726;8.892;2022-11-15T20:17:32;22.05;;;14.45;;
31594;SDS011;18200;48.726;8.892;2022-11-15T20:21:32;21.55;;;12.07;;
31594;SDS011;18200;48.726;8.892;2022-11-15T20:25:34;27.90;;;13.05;;
31594;SDS011;18200;48.726;8.892;2022-11-15T20:29:38;19.33;;;12.13;;
31594;SDS011;18200;48.726;8.892;2022-11-15T20:33:39;18.73;;;12.65;;
31594;SDS011;18200;48.726;8.892;2022-11-15T20:37:40;18.00;;;10.23;;
31594;SDS011;18200;48.726;8.892;2022-11-15T20:41:40;21.85;;;10.57;;
31594;SDS011;18200;48.726;8.892;2022-11-15T20:45:47;82.93;;;40.22;;
31594;SDS011;18200;48.726;8.892;2022-11-15T20:49:49;56.80;;;28.58;;
31594;SDS011;18200;48.726;8.892;2022-11-15T20:53:49;42.17;;;19.88;;
31594;SDS011;18200;48.726;8.892;2022-11-15T20:57:50;21.33;;;11.32;;
31594;SDS011;18200;48.726;8.892;2022-11-15T21:01:51;22.17;;;12.73;;
31594;SDS011;18200;48.726;8.892;2022-11-15T21:05:52;20.02;;;12.77;;
31594;SDS011;18200;48.726;8.892;2022-11-15T21:09:52;25.20;;;13.10;;
31594;SDS011;18200;48.726;8.892;2022-11-15T21:14:12;20.73;;;12.10;;
31594;SDS011;18200;48.726;8.892;2022-11-15T21:18:12;21.45;;;11.02;;
31594;SDS011;18200;48.726;8.892;2022-11-15T21:22:13;18.30;;;10.20;;
31594;SDS011;18200;48.726;8.892;2022-11-15T21:26:14;19.55;;;10.50;;
31594;SDS011;18200;48.726;8.892;2022-11-15T21:30:14;19.35;;;9.98;;
31594;SDS011;18200;48.726;8.892;2022-11-15T21:34:15;21.10;;;13.18;;
31594;SDS011;18200;48.726;8.892;2022-11-15T21:38:16;17.92;;;10.15;;
31594;SDS011;18200;48.726;8.892;2022-11-15T21:42:17;20.08;;;13.60;;
31594;SDS011;18200;48.726;8.892;2022-11-15T21:46:17;18.83;;;11.45;;
31594;SDS011;18200;48.726;8.892;2022-11-15T21:50:18;21.23;;;11.13;;
31594;SDS011;18200;48.726;8.892;2022-11-15T21:54:18;16.70;;;10.77;;
31594;SDS011;18200;48.726;8.892;2022-11-15T21:58:19;15.13;;;8.45;;
31594;SDS011;18200;48.726;8.892;2022-11-15T22:02:20;18.67;;;11.45;;
31594;SDS011;18200;48.726;8.892;2022-11-15T22:06:20;22.30;;;12.57;;
31594;SDS011;18200;48.726;8.892;2022-11-15T22:10:21;20.20;;;11.15;;
31594;SDS011;18200;48.726;8.892;2022-11-15T22:14:21;27.55;;;15.48;;
31594;SDS011;18200;48.726;8.892;2022-11-15T22:18:22;17.80;;;11.90;;
31594;SDS011;18200;48.726;8.892;2022-11-15T22:22:24;17.27;;;10.55;;
31594;SDS011;18200;48.726;8.892;2022-11-15T22:26:24;22.33;;;12.32;;
31594;SDS011;18200;48.726;8.892;2022-11-15T22:30:25;25.33;;;13.90;;
31594;SDS011;18200;48.726;8.892;2022-11-15T22:34:25;26.38;;;15.20;;
31594;SDS011;18200;48.726;8.892;2022-11-15T22:38:26;20.02;;;12.32;;
31594;SDS011;18200;48.726;8.892;2022-11-15T22:42:27;24.23;;;16.05;;
31594;SDS011;18200;48.726;8.892;2022-11-15T22:46:27;29.20;;;14.65;;
31594;SDS011;18200;48.726;8.892;2022-11-15T22:50:29;21.08;;;11.73;;
31594;SDS011;18200;48.726;8.892;2022-11-15T22:54:29;15.95;;;9.45;;
31594;SDS011;18200;48.726;8.892;2022-11-15T22:58:30;15.65;;;9.55;;
31594;SDS011;18200;48.726;8.892;2022-11-15T23:02:31;17.70;;;9.50;;
31594;SDS011;18200;48.726;8.892;2022-11-15T23:06:32;15.38;;;9.18;;
31594;SDS011;18200;48.726;8.892;2022-11-15T23:10:32;18.90;;;10.77;;
31594;SDS011;18200;48.726;8.892;2022-11-15T23:14:51;22.38;;;11.52;;
31594;SDS011;18200;48.726;8.892;2022-11-15T23:18:53;17.70;;;10.32;;
31594;SDS011;18200;48.726;8.892;2022-11-15T23:22:55;15.80;;;11.25;;
31594;SDS011;18200;48.726;8.892;2022-11-15T23:26:57;16.50;;;10.10;;
31594;SDS011;18200;48.726;8.892;2022-11-15T23:31:03;21.63;;;15.40;;
31594;SDS011;18200;48.726;8.892;2022-11-15T23:35:23;18.08;;;10.50;;
31594;SDS011;18200;48.726;8.892;2022-11-15T23:39:24;17.10;;;9.13;;
31594;SDS011;18200;48.726;8.892;2022-11-15T23:43:24;14.45;;;8.80;;
31594;SDS011;18200;48.726;8.892;2022-11-15T23:47:25;14.23;;;8.13;;
31594;SDS011;18200;48.726;8.892;2022-11-15T23:51:25;10.55;;;7.50;;
31594;SDS011;18200;48.726;8.892;2022-11-15T23:55:26;12.95;;;7.65;;
31594;SDS011;18200;48.726;8.892;2022-11-15T23:59:26;12.55;;;6.80;;
